Decoded Metar for EPKK (KRAKOW in POLAND) (IATA:KRK) | Meteo·Mobile Aviation Weather
aviador You're here:

EPKK Decoded Metar

KRAKOW in POLAND
Report Time2019-03-23 08:30:00
UTC Time2019-03-23 08:59:24
Flight Rules lifr LIFR
Wind050° at 07 kt
W.Decomp.*RWY 07: 6.4 kt HW 2.7 kt LCW
W.Rank050° ranks 4
Current wind is above 050° avg. (5.4)
Visibility2600 m
Phenomena:Mist
Clouds:Broken 002 Hf
Ceiling200 ft
Temp05°C (ISA -8)
Dew Point05°C (100% RH)
AAT1.4°C
QNH1028 hPa
Density Alt-630 ft
Elevation778 ft
Report Wrong Elevation
Raw Report
EPKK 230830Z 05007KT 020V080 2600 BR BKN002 05/05 Q1028=

Extra information for EPKK:More info

Metar Taf Metar & Taf Last 4 Metars F.Rules Stats Wind Profile Meteogram Temp Stats Airport Information Weather charts Add Link Nearby VenuesMetar ALERT Operation Metar Decoded Social comments